sensor_id;sensor_type;location;lat;lon;timestamp;temperature;humidity
21255;DHT22;10785;50.674;17.954;2022-10-15T00:01:49;11.20;99.90
21255;DHT22;10785;50.674;17.954;2022-10-15T00:04:18;11.20;99.90
21255;DHT22;10785;50.674;17.954;2022-10-15T00:06:47;11.20;99.90
21255;DHT22;10785;50.674;17.954;2022-10-15T00:09:15;11.20;99.90
21255;DHT22;10785;50.674;17.954;2022-10-15T00:11:44;11.20;99.90
21255;DHT22;10785;50.674;17.954;2022-10-15T00:14:14;11.20;99.90
21255;DHT22;10785;50.674;17.954;2022-10-15T00:16:44;11.20;99.90
21255;DHT22;10785;50.674;17.954;2022-10-15T00:19:12;11.20;99.90
21255;DHT22;10785;50.674;17.954;2022-10-15T00:21:41;11.20;99.90
21255;DHT22;10785;50.674;17.954;2022-10-15T00:24:10;11.20;99.90
21255;DHT22;10785;50.674;17.954;2022-10-15T00:26:38;11.30;99.90
21255;DHT22;10785;50.674;17.954;2022-10-15T00:29:07;11.30;99.90
21255;DHT22;10785;50.674;17.954;2022-10-15T00:31:37;11.30;99.90
21255;DHT22;10785;50.674;17.954;2022-10-15T00:34:06;11.30;91.30
21255;DHT22;10785;50.674;17.954;2022-10-15T00:36:35;11.30;99.90
21255;DHT22;10785;50.674;17.954;2022-10-15T00:39:05;11.30;99.90
21255;DHT22;10785;50.674;17.954;2022-10-15T00:41:35;11.30;1.00
21255;DHT22;10785;50.674;17.954;2022-10-15T00:47:13;11.40;99.90
21255;DHT22;10785;50.674;17.954;2022-10-15T00:49:47;11.40;1.00
21255;DHT22;10785;50.674;17.954;2022-10-15T00:52:20;11.40;1.00
21255;DHT22;10785;50.674;17.954;2022-10-15T00:54:54;11.40;1.00
21255;DHT22;10785;50.674;17.954;2022-10-15T00:57:25;11.50;1.00
21255;DHT22;10785;50.674;17.954;2022-10-15T00:59:59;11.50;1.00
21255;DHT22;10785;50.674;17.954;2022-10-15T01:02:31;11.50;1.00
21255;DHT22;10785;50.674;17.954;2022-10-15T01:05:00;11.50;1.00
21255;DHT22;10785;50.674;17.954;2022-10-15T01:07:29;11.50;1.00
21255;DHT22;10785;50.674;17.954;2022-10-15T01:09:58;11.50;1.00
21255;DHT22;10785;50.674;17.954;2022-10-15T01:12:38;11.50;1.00
21255;DHT22;10785;50.674;17.954;2022-10-15T01:15:15;11.40;1.00
21255;DHT22;10785;50.674;17.954;2022-10-15T01:17:51;11.40;1.00
21255;DHT22;10785;50.674;17.954;2022-10-15T01:20:50;11.40;1.00
21255;DHT22;10785;50.674;17.954;2022-10-15T01:24:02;11.30;1.00
21255;DHT22;10785;50.674;17.954;2022-10-15T01:26:58;11.30;1.00
21255;DHT22;10785;50.674;17.954;2022-10-15T01:29:46;11.20;1.00
21255;DHT22;10785;50.674;17.954;2022-10-15T01:32:24;11.10;1.00
21255;DHT22;10785;50.674;17.954;2022-10-15T01:34:57;11.00;29.50
21255;DHT22;10785;50.674;17.954;2022-10-15T01:37:36;11.00;99.90
21255;DHT22;10785;50.674;17.954;2022-10-15T01:40:08;11.00;99.90
21255;DHT22;10785;50.674;17.954;2022-10-15T01:42:45;11.00;99.90
21255;DHT22;10785;50.674;17.954;2022-10-15T01:45:19;11.00;1.00
21255;DHT22;10785;50.674;17.954;2022-10-15T01:48:10;10.90;1.00
21255;DHT22;10785;50.674;17.954;2022-10-15T01:50:44;10.90;1.00
21255;DHT22;10785;50.674;17.954;2022-10-15T01:53:16;10.90;1.00
21255;DHT22;10785;50.674;17.954;2022-10-15T01:55:46;10.90;1.00
21255;DHT22;10785;50.674;17.954;2022-10-15T01:58:17;10.90;1.00
21255;DHT22;10785;50.674;17.954;2022-10-15T02:00:46;10.90;1.00
21255;DHT22;10785;50.674;17.954;2022-10-15T02:03:17;10.90;1.00
21255;DHT22;10785;50.674;17.954;2022-10-15T02:05:50;10.90;1.00
21255;DHT22;10785;50.674;17.954;2022-10-15T02:08:27;10.90;1.00
21255;DHT22;10785;50.674;17.954;2022-10-15T02:11:03;11.00;1.00
21255;DHT22;10785;50.674;17.954;2022-10-15T02:13:40;11.00;1.00
21255;DHT22;10785;50.674;17.954;2022-10-15T02:16:13;11.00;1.00
21255;DHT22;10785;50.674;17.954;2022-10-15T02:18:56;11.10;1.00
21255;DHT22;10785;50.674;17.954;2022-10-15T02:21:30;11.10;8.10
21255;DHT22;10785;50.674;17.954;2022-10-15T02:24:05;11.20;1.00
21255;DHT22;10785;50.674;17.954;2022-10-15T02:26:38;11.20;1.00
21255;DHT22;10785;50.674;17.954;2022-10-15T02:29:11;11.30;1.00
21255;DHT22;10785;50.674;17.954;2022-10-15T02:31:42;11.40;1.00
21255;DHT22;10785;50.674;17.954;2022-10-15T02:34:17;11.40;99.90
21255;DHT22;10785;50.674;17.954;2022-10-15T02:36:48;11.50;1.00
21255;DHT22;10785;50.674;17.954;2022-10-15T02:39:20;11.50;1.00
21255;DHT22;10785;50.674;17.954;2022-10-15T02:41:50;11.50;1.00
21255;DHT22;10785;50.674;17.954;2022-10-15T02:44:20;11.60;1.00
21255;DHT22;10785;50.674;17.954;2022-10-15T02:46:49;11.60;1.00
21255;DHT22;10785;50.674;17.954;2022-10-15T02:49:20;11.60;1.00
21255;DHT22;10785;50.674;17.954;2022-10-15T02:51:50;11.60;1.00
21255;DHT22;10785;50.674;17.954;2022-10-15T02:54:19;11.60;1.00
21255;DHT22;10785;50.674;17.954;2022-10-15T02:56:47;11.60;1.00
21255;DHT22;10785;50.674;17.954;2022-10-15T02:59:19;11.60;1.00
21255;DHT22;10785;50.674;17.954;2022-10-15T03:01:49;11.60;1.00
21255;DHT22;10785;50.674;17.954;2022-10-15T03:04:18;11.60;1.00
21255;DHT22;10785;50.674;17.954;2022-10-15T03:06:48;11.60;1.00
21255;DHT22;10785;50.674;17.954;2022-10-15T03:09:17;11.60;1.00
21255;DHT22;10785;50.674;17.954;2022-10-15T03:11:46;11.60;1.00
21255;DHT22;10785;50.674;17.954;2022-10-15T03:14:15;11.60;1.00
21255;DHT22;10785;50.674;17.954;2022-10-15T03:16:44;11.60;1.00
21255;DHT22;10785;50.674;17.954;2022-10-15T03:19:13;11.60;1.00
21255;DHT22;10785;50.674;17.954;2022-10-15T03:21:44;11.50;1.00
21255;DHT22;10785;50.674;17.954;2022-10-15T03:24:16;11.60;1.00
21255;DHT22;10785;50.674;17.954;2022-10-15T03:26:45;11.60;1.00
21255;DHT22;10785;50.674;17.954;2022-10-15T03:29:14;11.60;1.00
21255;DHT22;10785;50.674;17.954;2022-10-15T03:31:50;11.60;1.00
21255;DHT22;10785;50.674;17.954;2022-10-15T03:34:20;11.50;1.00
21255;DHT22;10785;50.674;17.954;2022-10-15T03:36:49;11.50;1.00
21255;DHT22;10785;50.674;17.954;2022-10-15T03:39:19;11.50;1.00
21255;DHT22;10785;50.674;17.954;2022-10-15T03:41:52;11.50;1.00
21255;DHT22;10785;50.674;17.954;2022-10-15T03:44:29;11.50;35.50
21255;DHT22;10785;50.674;17.954;2022-10-15T03:47:05;11.50;99.90
21255;DHT22;10785;50.674;17.954;2022-10-15T03:49:47;11.50;99.90
21255;DHT22;10785;50.674;17.954;2022-10-15T03:52:16;11.50;99.90
21255;DHT22;10785;50.674;17.954;2022-10-15T03:54:48;11.50;99.90
21255;DHT22;10785;50.674;17.954;2022-10-15T03:57:19;11.50;99.90
21255;DHT22;10785;50.674;17.954;2022-10-15T03:59:53;11.50;99.90
21255;DHT22;10785;50.674;17.954;2022-10-15T04:02:24;11.50;99.90
21255;DHT22;10785;50.674;17.954;2022-10-15T04:04:55;11.50;99.90
21255;DHT22;10785;50.674;17.954;2022-10-15T04:07:25;11.50;1.00
21255;DHT22;10785;50.674;17.954;2022-10-15T04:09:55;11.50;1.00
21255;DHT22;10785;50.674;17.954;2022-10-15T04:12:29;11.60;1.00
21255;DHT22;10785;50.674;17.954;2022-10-15T04:14:57;11.60;1.00
21255;DHT22;10785;50.674;17.954;2022-10-15T04:17:29;11.60;99.90
21255;DHT22;10785;50.674;17.954;2022-10-15T04:19:58;11.60;1.00
21255;DHT22;10785;50.674;17.954;2022-10-15T04:22:26;11.60;1.00
21255;DHT22;10785;50.674;17.954;2022-10-15T04:25:01;11.60;1.00
21255;DHT22;10785;50.674;17.954;2022-10-15T04:27:29;11.70;99.90
21255;DHT22;10785;50.674;17.954;2022-10-15T04:30:10;11.70;1.00
21255;DHT22;10785;50.674;17.954;2022-10-15T04:32:50;11.70;99.90
21255;DHT22;10785;50.674;17.954;2022-10-15T04:35:20;11.70;99.90
21255;DHT22;10785;50.674;17.954;2022-10-15T04:38:03;11.70;99.90
21255;DHT22;10785;50.674;17.954;2022-10-15T04:40:59;11.70;99.90
21255;DHT22;10785;50.674;17.954;2022-10-15T04:43:41;11.80;99.90
21255;DHT22;10785;50.674;17.954;2022-10-15T04:46:12;11.80;1.00
21255;DHT22;10785;50.674;17.954;2022-10-15T04:48:41;11.90;88.60
21255;DHT22;10785;50.674;17.954;2022-10-15T04:51:14;11.90;1.00
21255;DHT22;10785;50.674;17.954;2022-10-15T04:53:59;11.90;1.00
21255;DHT22;10785;50.674;17.954;2022-10-15T04:56:31;12.00;1.00
21255;DHT22;10785;50.674;17.954;2022-10-15T04:59:00;12.00;1.00
21255;DHT22;10785;50.674;17.954;2022-10-15T05:01:31;11.90;1.00
21255;DHT22;10785;50.674;17.954;2022-10-15T05:04:09;11.90;1.00
21255;DHT22;10785;50.674;17.954;2022-10-15T05:06:39;11.90;1.00
21255;DHT22;10785;50.674;17.954;2022-10-15T05:09:17;12.00;1.00
21255;DHT22;10785;50.674;17.954;2022-10-15T05:11:50;12.00;1.00
21255;DHT22;10785;50.674;17.954;2022-10-15T05:14:19;12.00;1.00
21255;DHT22;10785;50.674;17.954;2022-10-15T05:17:04;12.10;1.00
21255;DHT22;10785;50.674;17.954;2022-10-15T05:19:38;12.10;1.00
21255;DHT22;10785;50.674;17.954;2022-10-15T05:22:14;12.10;99.90
21255;DHT22;10785;50.674;17.954;2022-10-15T05:24:49;12.10;1.00
21255;DHT22;10785;50.674;17.954;2022-10-15T05:27:37;12.10;99.90
21255;DHT22;10785;50.674;17.954;2022-10-15T05:30:07;12.10;99.90
21255;DHT22;10785;50.674;17.954;2022-10-15T05:32:43;12.10;99.90
21255;DHT22;10785;50.674;17.954;2022-10-15T05:35:16;12.20;1.00
21255;DHT22;10785;50.674;17.954;2022-10-15T05:38:03;12.20;99.90
21255;DHT22;10785;50.674;17.954;2022-10-15T05:40:32;12.20;99.90
21255;DHT22;10785;50.674;17.954;2022-10-15T05:43:07;12.20;99.90
21255;DHT22;10785;50.674;17.954;2022-10-15T05:45:36;12.30;99.90
21255;DHT22;10785;50.674;17.954;2022-10-15T05:48:06;12.30;99.90
21255;DHT22;10785;50.674;17.954;2022-10-15T05:50:35;12.30;99.90
21255;DHT22;10785;50.674;17.954;2022-10-15T05:53:08;12.40;99.90
21255;DHT22;10785;50.674;17.954;2022-10-15T05:55:59;12.40;99.90
21255;DHT22;10785;50.674;17.954;2022-10-15T05:58:33;12.50;43.20
21255;DHT22;10785;50.674;17.954;2022-10-15T06:01:05;12.50;1.00
21255;DHT22;10785;50.674;17.954;2022-10-15T06:03:38;12.50;1.00
21255;DHT22;10785;50.674;17.954;2022-10-15T06:06:16;12.60;1.00
21255;DHT22;10785;50.674;17.954;2022-10-15T06:08:46;12.60;1.00
21255;DHT22;10785;50.674;17.954;2022-10-15T06:11:15;12.70;1.00
21255;DHT22;10785;50.674;17.954;2022-10-15T06:13:46;12.70;1.00
21255;DHT22;10785;50.674;17.954;2022-10-15T06:16:16;12.70;1.00
21255;DHT22;10785;50.674;17.954;2022-10-15T06:18:51;12.80;1.00
21255;DHT22;10785;50.674;17.954;2022-10-15T06:21:20;12.90;1.00
21255;DHT22;10785;50.674;17.954;2022-10-15T06:23:49;12.90;1.00
21255;DHT22;10785;50.674;17.954;2022-10-15T06:26:17;13.00;1.00
21255;DHT22;10785;50.674;17.954;2022-10-15T06:28:48;13.00;1.00
21255;DHT22;10785;50.674;17.954;2022-10-15T06:31:17;13.10;1.00
21255;DHT22;10785;50.674;17.954;2022-10-15T06:33:46;13.10;1.00
21255;DHT22;10785;50.674;17.954;2022-10-15T06:36:14;13.20;1.00
21255;DHT22;10785;50.674;17.954;2022-10-15T06:38:46;13.20;1.00
21255;DHT22;10785;50.674;17.954;2022-10-15T06:41:14;13.30;1.00
21255;DHT22;10785;50.674;17.954;2022-10-15T06:43:49;13.30;1.00
21255;DHT22;10785;50.674;17.954;2022-10-15T06:46:18;13.40;1.00
21255;DHT22;10785;50.674;17.954;2022-10-15T06:48:48;13.40;1.00
21255;DHT22;10785;50.674;17.954;2022-10-15T06:51:18;13.50;1.00
21255;DHT22;10785;50.674;17.954;2022-10-15T06:53:49;13.50;1.00
21255;DHT22;10785;50.674;17.954;2022-10-15T06:56:18;13.60;99.90
21255;DHT22;10785;50.674;17.954;2022-10-15T06:58:47;13.60;1.00
21255;DHT22;10785;50.674;17.954;2022-10-15T07:01:17;13.70;99.90
21255;DHT22;10785;50.674;17.954;2022-10-15T07:03:48;13.70;99.90
21255;DHT22;10785;50.674;17.954;2022-10-15T07:06:17;13.70;99.90
21255;DHT22;10785;50.674;17.954;2022-10-15T07:08:46;13.80;99.90
21255;DHT22;10785;50.674;17.954;2022-10-15T07:11:15;13.90;99.90
21255;DHT22;10785;50.674;17.954;2022-10-15T07:13:44;13.90;99.90
21255;DHT22;10785;50.674;17.954;2022-10-15T07:16:13;14.00;99.90
21255;DHT22;10785;50.674;17.954;2022-10-15T07:18:43;14.10;99.90
21255;DHT22;10785;50.674;17.954;2022-10-15T07:21:12;14.10;99.90
21255;DHT22;10785;50.674;17.954;2022-10-15T07:23:40;14.20;99.90
21255;DHT22;10785;50.674;17.954;2022-10-15T07:26:09;14.30;99.90
21255;DHT22;10785;50.674;17.954;2022-10-15T07:28:38;14.30;47.20
21255;DHT22;10785;50.674;17.954;2022-10-15T07:31:07;14.40;5.90
21255;DHT22;10785;50.674;17.954;2022-10-15T07:33:36;14.40;3.30
21255;DHT22;10785;50.674;17.954;2022-10-15T07:36:08;14.50;92.60
21255;DHT22;10785;50.674;17.954;2022-10-15T07:38:38;14.60;9.60
21255;DHT22;10785;50.674;17.954;2022-10-15T07:41:08;14.60;26.50
21255;DHT22;10785;50.674;17.954;2022-10-15T07:43:42;14.70;1.00
21255;DHT22;10785;50.674;17.954;2022-10-15T07:46:11;14.70;1.00
21255;DHT22;10785;50.674;17.954;2022-10-15T07:48:39;14.80;1.00
21255;DHT22;10785;50.674;17.954;2022-10-15T07:51:10;14.90;1.00
21255;DHT22;10785;50.674;17.954;2022-10-15T07:53:39;14.90;1.00
21255;DHT22;10785;50.674;17.954;2022-10-15T07:56:11;15.00;1.00
21255;DHT22;10785;50.674;17.954;2022-10-15T07:58:40;15.10;1.00
21255;DHT22;10785;50.674;17.954;2022-10-15T08:01:10;15.20;1.00
21255;DHT22;10785;50.674;17.954;2022-10-15T08:03:38;15.30;1.00
21255;DHT22;10785;50.674;17.954;2022-10-15T08:06:07;15.50;1.00
21255;DHT22;10785;50.674;17.954;2022-10-15T08:08:38;15.70;1.00
21255;DHT22;10785;50.674;17.954;2022-10-15T08:11:07;15.80;1.00
21255;DHT22;10785;50.674;17.954;2022-10-15T08:13:36;15.90;1.00
21255;DHT22;10785;50.674;17.954;2022-10-15T08:16:08;16.00;1.00
21255;DHT22;10785;50.674;17.954;2022-10-15T08:18:39;16.10;1.00
21255;DHT22;10785;50.674;17.954;2022-10-15T08:21:09;16.10;1.00
21255;DHT22;10785;50.674;17.954;2022-10-15T08:23:39;16.10;1.00
21255;DHT22;10785;50.674;17.954;2022-10-15T08:26:09;16.10;1.00
21255;DHT22;10785;50.674;17.954;2022-10-15T08:28:37;16.10;1.00
21255;DHT22;10785;50.674;17.954;2022-10-15T08:31:06;16.00;1.00
21255;DHT22;10785;50.674;17.954;2022-10-15T08:33:36;16.00;1.00
21255;DHT22;10785;50.674;17.954;2022-10-15T08:36:06;15.90;1.00
21255;DHT22;10785;50.674;17.954;2022-10-15T08:38:35;15.90;1.00
21255;DHT22;10785;50.674;17.954;2022-10-15T08:41:17;15.90;1.00
21255;DHT22;10785;50.674;17.954;2022-10-15T08:43:47;15.90;1.00
21255;DHT22;10785;50.674;17.954;2022-10-15T08:46:21;15.90;1.00
21255;DHT22;10785;50.674;17.954;2022-10-15T08:48:54;16.00;1.00
21255;DHT22;10785;50.674;17.954;2022-10-15T08:51:25;16.10;1.00
21255;DHT22;10785;50.674;17.954;2022-10-15T08:53:58;16.20;1.00
21255;DHT22;10785;50.674;17.954;2022-10-15T08:56:32;16.30;1.00
21255;DHT22;10785;50.674;17.954;2022-10-15T08:59:12;16.30;1.00
21255;DHT22;10785;50.674;17.954;2022-10-15T09:01:50;16.40;1.00
21255;DHT22;10785;50.674;17.954;2022-10-15T09:04:25;16.40;1.00
21255;DHT22;10785;50.674;17.954;2022-10-15T09:07:04;16.40;1.00
21255;DHT22;10785;50.674;17.954;2022-10-15T09:09:39;16.50;1.00
21255;DHT22;10785;50.674;17.954;2022-10-15T09:12:24;16.60;1.00
21255;DHT22;10785;50.674;17.954;2022-10-15T09:14:58;16.70;1.00
21255;DHT22;10785;50.674;17.954;2022-10-15T09:17:31;16.90;1.00
21255;DHT22;10785;50.674;17.954;2022-10-15T09:20:05;17.30;1.00
21255;DHT22;10785;50.674;17.954;2022-10-15T09:22:35;17.60;1.00
21255;DHT22;10785;50.674;17.954;2022-10-15T09:25:14;17.80;1.00
21255;DHT22;10785;50.674;17.954;2022-10-15T09:27:45;17.80;1.00
21255;DHT22;10785;50.674;17.954;2022-10-15T09:30:26;17.80;1.00
21255;DHT22;10785;50.674;17.954;2022-10-15T09:33:00;17.70;1.00
21255;DHT22;10785;50.674;17.954;2022-10-15T09:35:34;17.80;1.00
21255;DHT22;10785;50.674;17.954;2022-10-15T09:38:16;17.80;99.90
21255;DHT22;10785;50.674;17.954;2022-10-15T09:40:59;17.70;1.00
21255;DHT22;10785;50.674;17.954;2022-10-15T09:43:36;17.80;1.00
21255;DHT22;10785;50.674;17.954;2022-10-15T09:46:08;17.90;1.00
21255;DHT22;10785;50.674;17.954;2022-10-15T09:48:42;18.10;1.00
21255;DHT22;10785;50.674;17.954;2022-10-15T09:51:21;18.20;1.00
21255;DHT22;10785;50.674;17.954;2022-10-15T09:53:58;18.20;1.00
21255;DHT22;10785;50.674;17.954;2022-10-15T09:56:32;18.10;1.00
21255;DHT22;10785;50.674;17.954;2022-10-15T09:59:04;18.10;1.00
21255;DHT22;10785;50.674;17.954;2022-10-15T10:01:36;18.20;1.00
21255;DHT22;10785;50.674;17.954;2022-10-15T10:04:14;18.40;1.00
21255;DHT22;10785;50.674;17.954;2022-10-15T10:06:46;18.40;1.00
21255;DHT22;10785;50.674;17.954;2022-10-15T10:09:18;18.40;1.00
21255;DHT22;10785;50.674;17.954;2022-10-15T10:11:50;18.30;1.00
21255;DHT22;10785;50.674;17.954;2022-10-15T10:14:30;18.00;1.00
21255;DHT22;10785;50.674;17.954;2022-10-15T10:17:17;18.20;1.00
21255;DHT22;10785;50.674;17.954;2022-10-15T10:20:03;17.90;1.00
21255;DHT22;10785;50.674;17.954;2022-10-15T10:22:42;17.70;1.00
21255;DHT22;10785;50.674;17.954;2022-10-15T10:25:28;17.40;1.00
21255;DHT22;10785;50.674;17.954;2022-10-15T10:28:03;17.50;69.00
21255;DHT22;10785;50.674;17.954;2022-10-15T10:30:36;17.40;11.80
21255;DHT22;10785;50.674;17.954;2022-10-15T10:33:06;17.50;55.80
21255;DHT22;10785;50.674;17.954;2022-10-15T10:35:44;17.40;82.80
21255;DHT22;10785;50.674;17.954;2022-10-15T10:38:21;17.40;1.00
21255;DHT22;10785;50.674;17.954;2022-10-15T10:40:50;17.50;1.00
21255;DHT22;10785;50.674;17.954;2022-10-15T10:43:24;17.40;1.00
21255;DHT22;10785;50.674;17.954;2022-10-15T10:45:56;17.50;1.00
21255;DHT22;10785;50.674;17.954;2022-10-15T10:48:27;17.50;1.00
21255;DHT22;10785;50.674;17.954;2022-10-15T10:51:08;17.40;1.00
21255;DHT22;10785;50.674;17.954;2022-10-15T10:53:51;17.20;1.00
21255;DHT22;10785;50.674;17.954;2022-10-15T10:56:23;17.20;1.00
21255;DHT22;10785;50.674;17.954;2022-10-15T10:58:57;17.10;1.00
21255;DHT22;10785;50.674;17.954;2022-10-15T11:01:30;17.10;1.00
21255;DHT22;10785;50.674;17.954;2022-10-15T11:04:00;17.10;1.00
21255;DHT22;10785;50.674;17.954;2022-10-15T11:06:48;17.00;1.00
21255;DHT22;10785;50.674;17.954;2022-10-15T11:09:36;17.20;1.00
21255;DHT22;10785;50.674;17.954;2022-10-15T11:12:30;17.30;1.00
21255;DHT22;10785;50.674;17.954;2022-10-15T11:15:11;17.20;1.00
21255;DHT22;10785;50.674;17.954;2022-10-15T11:17:50;17.10;1.00
21255;DHT22;10785;50.674;17.954;2022-10-15T11:20:24;17.10;1.00
21255;DHT22;10785;50.674;17.954;2022-10-15T11:23:27;17.10;1.00
21255;DHT22;10785;50.674;17.954;2022-10-15T11:26:04;17.20;28.10
21255;DHT22;10785;50.674;17.954;2022-10-15T11:28:46;17.20;1.00
21255;DHT22;10785;50.674;17.954;2022-10-15T11:31:22;17.10;1.00
21255;DHT22;10785;50.674;17.954;2022-10-15T11:34:09;17.10;1.00
21255;DHT22;10785;50.674;17.954;2022-10-15T11:36:52;17.10;1.00
21255;DHT22;10785;50.674;17.954;2022-10-15T11:39:37;17.10;1.00
21255;DHT22;10785;50.674;17.954;2022-10-15T11:42:15;17.20;1.00
21255;DHT22;10785;50.674;17.954;2022-10-15T11:44:59;17.20;1.00
21255;DHT22;10785;50.674;17.954;2022-10-15T11:47:39;17.30;1.00
21255;DHT22;10785;50.674;17.954;2022-10-15T11:50:27;17.30;1.00
21255;DHT22;10785;50.674;17.954;2022-10-15T11:53:44;17.30;1.00
21255;DHT22;10785;50.674;17.954;2022-10-15T11:56:19;17.30;1.00
21255;DHT22;10785;50.674;17.954;2022-10-15T11:58:56;17.30;1.00
21255;DHT22;10785;50.674;17.954;2022-10-15T12:01:32;17.40;1.00
21255;DHT22;10785;50.674;17.954;2022-10-15T12:04:10;17.40;1.00
21255;DHT22;10785;50.674;17.954;2022-10-15T12:06:46;17.50;1.00
21255;DHT22;10785;50.674;17.954;2022-10-15T12:09:21;17.60;1.00
21255;DHT22;10785;50.674;17.954;2022-10-15T12:11:54;17.60;1.00
21255;DHT22;10785;50.674;17.954;2022-10-15T12:14:37;17.50;1.00
21255;DHT22;10785;50.674;17.954;2022-10-15T12:23:25;17.80;1.00
21255;DHT22;10785;50.674;17.954;2022-10-15T12:29:35;17.90;1.00
21255;DHT22;10785;50.674;17.954;2022-10-15T12:32:22;17.70;1.00
21255;DHT22;10785;50.674;17.954;2022-10-15T12:34:56;17.60;1.00
21255;DHT22;10785;50.674;17.954;2022-10-15T12:37:26;17.60;1.00
21255;DHT22;10785;50.674;17.954;2022-10-15T12:39:58;17.60;1.00
21255;DHT22;10785;50.674;17.954;2022-10-15T12:42:32;17.60;1.00
21255;DHT22;10785;50.674;17.954;2022-10-15T12:45:04;17.50;1.00
21255;DHT22;10785;50.674;17.954;2022-10-15T12:47:46;17.40;1.00
21255;DHT22;10785;50.674;17.954;2022-10-15T12:50:19;17.40;1.00
21255;DHT22;10785;50.674;17.954;2022-10-15T12:52:57;17.30;1.00
21255;DHT22;10785;50.674;17.954;2022-10-15T12:55:32;17.30;1.00
21255;DHT22;10785;50.674;17.954;2022-10-15T12:58:04;17.30;1.00
21255;DHT22;10785;50.674;17.954;2022-10-15T13:00:36;17.40;1.00
21255;DHT22;10785;50.674;17.954;2022-10-15T13:03:23;17.40;1.00
21255;DHT22;10785;50.674;17.954;2022-10-15T13:05:52;17.30;1.00
21255;DHT22;10785;50.674;17.954;2022-10-15T13:08:36;17.20;1.00
21255;DHT22;10785;50.674;17.954;2022-10-15T13:11:20;17.20;1.00
21255;DHT22;10785;50.674;17.954;2022-10-15T13:13:54;17.10;1.00
21255;DHT22;10785;50.674;17.954;2022-10-15T13:16:25;17.00;1.00
21255;DHT22;10785;50.674;17.954;2022-10-15T13:18:55;17.00;1.00
21255;DHT22;10785;50.674;17.954;2022-10-15T13:21:46;16.90;1.00
21255;DHT22;10785;50.674;17.954;2022-10-15T13:24:18;16.90;1.00
21255;DHT22;10785;50.674;17.954;2022-10-15T13:26:49;16.90;1.00
21255;DHT22;10785;50.674;17.954;2022-10-15T13:29:20;16.80;1.00
21255;DHT22;10785;50.674;17.954;2022-10-15T13:31:49;16.80;1.00
21255;DHT22;10785;50.674;17.954;2022-10-15T13:34:25;16.80;1.00
21255;DHT22;10785;50.674;17.954;2022-10-15T13:36:56;16.70;1.00
21255;DHT22;10785;50.674;17.954;2022-10-15T13:39:30;16.60;1.00
21255;DHT22;10785;50.674;17.954;2022-10-15T13:42:08;16.60;1.00
21255;DHT22;10785;50.674;17.954;2022-10-15T13:44:37;16.60;1.00
21255;DHT22;10785;50.674;17.954;2022-10-15T13:47:24;16.50;1.00
21255;DHT22;10785;50.674;17.954;2022-10-15T13:50:12;16.50;1.00
21255;DHT22;10785;50.674;17.954;2022-10-15T13:52:43;16.50;1.00
21255;DHT22;10785;50.674;17.954;2022-10-15T13:55:21;16.50;1.00
21255;DHT22;10785;50.674;17.954;2022-10-15T13:57:59;16.50;1.00
21255;DHT22;10785;50.674;17.954;2022-10-15T14:00:31;16.50;1.00
21255;DHT22;10785;50.674;17.954;2022-10-15T14:03:15;16.50;1.00
21255;DHT22;10785;50.674;17.954;2022-10-15T14:05:46;16.50;1.00
21255;DHT22;10785;50.674;17.954;2022-10-15T14:08:18;16.50;1.00
21255;DHT22;10785;50.674;17.954;2022-10-15T14:10:48;16.50;99.90
21255;DHT22;10785;50.674;17.954;2022-10-15T14:13:18;16.40;1.00
21255;DHT22;10785;50.674;17.954;2022-10-15T14:15:55;16.40;1.00
21255;DHT22;10785;50.674;17.954;2022-10-15T14:18:31;16.30;1.00
21255;DHT22;10785;50.674;17.954;2022-10-15T14:21:01;16.20;1.00
21255;DHT22;10785;50.674;17.954;2022-10-15T14:23:30;16.20;1.00
21255;DHT22;10785;50.674;17.954;2022-10-15T14:26:01;16.10;1.00
21255;DHT22;10785;50.674;17.954;2022-10-15T14:28:32;16.00;1.00
21255;DHT22;10785;50.674;17.954;2022-10-15T14:31:02;16.00;1.00
21255;DHT22;10785;50.674;17.954;2022-10-15T14:33:43;15.90;1.00
21255;DHT22;10785;50.674;17.954;2022-10-15T14:36:24;15.90;1.00
21255;DHT22;10785;50.674;17.954;2022-10-15T14:38:54;15.80;1.00
21255;DHT22;10785;50.674;17.954;2022-10-15T14:41:28;15.80;1.00
21255;DHT22;10785;50.674;17.954;2022-10-15T14:44:14;15.80;1.00
21255;DHT22;10785;50.674;17.954;2022-10-15T14:46:46;15.70;1.00
21255;DHT22;10785;50.674;17.954;2022-10-15T14:49:24;15.70;1.00
21255;DHT22;10785;50.674;17.954;2022-10-15T14:51:56;15.70;1.00
21255;DHT22;10785;50.674;17.954;2022-10-15T14:54:32;15.70;1.00
21255;DHT22;10785;50.674;17.954;2022-10-15T14:57:03;15.60;1.00
21255;DHT22;10785;50.674;17.954;2022-10-15T14:59:35;15.60;1.00
21255;DHT22;10785;50.674;17.954;2022-10-15T15:02:09;15.60;1.00
21255;DHT22;10785;50.674;17.954;2022-10-15T15:04:43;15.60;1.00
21255;DHT22;10785;50.674;17.954;2022-10-15T15:07:15;15.50;1.00
21255;DHT22;10785;50.674;17.954;2022-10-15T15:09:46;15.50;1.00
21255;DHT22;10785;50.674;17.954;2022-10-15T15:12:21;15.40;1.00
21255;DHT22;10785;50.674;17.954;2022-10-15T15:14:55;15.40;1.00
21255;DHT22;10785;50.674;17.954;2022-10-15T15:17:25;15.40;99.90
21255;DHT22;10785;50.674;17.954;2022-10-15T15:19:55;15.30;99.90
21255;DHT22;10785;50.674;17.954;2022-10-15T15:22:29;15.30;99.90
21255;DHT22;10785;50.674;17.954;2022-10-15T15:25:01;15.30;99.90
21255;DHT22;10785;50.674;17.954;2022-10-15T15:27:31;15.30;1.00
21255;DHT22;10785;50.674;17.954;2022-10-15T15:30:06;15.20;1.00
21255;DHT22;10785;50.674;17.954;2022-10-15T15:32:35;15.20;1.00
21255;DHT22;10785;50.674;17.954;2022-10-15T15:35:13;15.20;1.00
21255;DHT22;10785;50.674;17.954;2022-10-15T15:37:44;15.10;1.00
21255;DHT22;10785;50.674;17.954;2022-10-15T15:40:13;15.00;1.00
21255;DHT22;10785;50.674;17.954;2022-10-15T15:42:42;14.80;1.00
21255;DHT22;10785;50.674;17.954;2022-10-15T15:45:18;14.60;1.00
21255;DHT22;10785;50.674;17.954;2022-10-15T15:47:47;14.30;35.70
21255;DHT22;10785;50.674;17.954;2022-10-15T15:50:16;14.10;99.90
21255;DHT22;10785;50.674;17.954;2022-10-15T15:52:45;14.00;1.00
21255;DHT22;10785;50.674;17.954;2022-10-15T15:55:14;13.90;1.00
21255;DHT22;10785;50.674;17.954;2022-10-15T15:57:45;13.70;1.00
21255;DHT22;10785;50.674;17.954;2022-10-15T16:00:16;13.60;99.90
21255;DHT22;10785;50.674;17.954;2022-10-15T16:02:45;13.50;1.00
21255;DHT22;10785;50.674;17.954;2022-10-15T16:05:15;13.50;1.00
21255;DHT22;10785;50.674;17.954;2022-10-15T16:07:44;13.40;1.00
21255;DHT22;10785;50.674;17.954;2022-10-15T16:10:13;13.40;1.00
21255;DHT22;10785;50.674;17.954;2022-10-15T16:12:41;13.40;1.00
21255;DHT22;10785;50.674;17.954;2022-10-15T16:15:10;13.40;1.00
21255;DHT22;10785;50.674;17.954;2022-10-15T16:17:43;13.30;1.00
21255;DHT22;10785;50.674;17.954;2022-10-15T16:20:11;13.30;1.00
21255;DHT22;10785;50.674;17.954;2022-10-15T16:22:41;13.30;1.00